Time;durP1;ratioP1;P1;durP2;ratioP2;P2;SDS_P1;SDS_P2;PMS_P1;PMS_P2;Temp;Humidity;BMP_temperature;BMP_pressure;BME280_temperature;BME280_humidity;BME280_pressure;Samples;Min_cycle;Max_cycle;Signal;HPM_P1;HPM_P2
2022/03/25 00:00:22;;;;;;;19.88;13.32;;;6.50;53.80;;;;;;5094783;28;20312;-56
2022/03/25 00:02:49;;;;;;;20.45;12.70;;;6.50;54.20;;;;;;5095334;28;20200;-55
2022/03/25 00:05:16;;;;;;;20.77;13.18;;;6.50;55.30;;;;;;5095653;28;20197;-56
2022/03/25 00:07:43;;;;;;;21.67;14.05;;;6.50;55.10;;;;;;5097382;28;20215;-56
2022/03/25 00:10:10;;;;;;;18.48;13.27;;;6.50;55.50;;;;;;5095411;28;20225;-56
2022/03/25 00:12:37;;;;;;;16.95;12.52;;;6.40;55.80;;;;;;5094565;28;20201;-56
2022/03/25 00:15:05;;;;;;;18.42;12.63;;;6.40;56.00;;;;;;5094379;28;20227;-55
2022/03/25 00:17:34;;;;;;;22.42;13.70;;;6.40;56.40;;;;;;5094263;28;20211;-56
2022/03/25 00:20:01;;;;;;;16.90;12.65;;;6.40;56.70;;;;;;5096551;28;20221;-56
2022/03/25 00:22:28;;;;;;;18.65;13.15;;;6.30;57.00;;;;;;5094728;28;20201;-56
2022/03/25 00:24:55;;;;;;;18.77;12.35;;;6.30;57.50;;;;;;5096478;28;20196;-55
2022/03/25 00:27:23;;;;;;;23.63;14.73;;;6.30;58.10;;;;;;5098451;28;20283;-54
2022/03/25 00:29:50;;;;;;;22.30;14.13;;;6.20;58.50;;;;;;5099710;28;20200;-57
2022/03/25 00:32:17;;;;;;;19.23;14.40;;;6.20;59.10;;;;;;5098563;28;20208;-57
2022/03/25 00:34:46;;;;;;;26.63;15.60;;;6.20;59.60;;;;;;5098163;28;20224;-57
2022/03/25 00:37:13;;;;;;;24.85;13.93;;;6.20;60.10;;;;;;5099751;28;20207;-56
2022/03/25 00:39:40;;;;;;;24.35;15.25;;;6.20;60.60;;;;;;5101855;28;20200;-57
2022/03/25 00:42:09;;;;;;;20.50;13.63;;;6.20;61.10;;;;;;5102528;28;20201;-56
2022/03/25 00:44:36;;;;;;;22.45;14.05;;;6.10;61.30;;;;;;5103946;28;20195;-57
2022/03/25 00:47:03;;;;;;;20.73;14.00;;;6.10;62.20;;;;;;5102479;28;20204;-57
2022/03/25 00:49:31;;;;;;;23.27;13.80;;;6.10;61.70;;;;;;5102108;28;20211;-57
2022/03/25 00:51:59;;;;;;;26.80;13.48;;;6.00;61.80;;;;;;5101546;28;20220;-57
2022/03/25 00:54:27;;;;;;;21.08;13.80;;;6.00;62.00;;;;;;5099649;28;20216;-56
2022/03/25 00:56:54;;;;;;;22.30;15.18;;;6.00;62.30;;;;;;5098088;28;20242;-57
2022/03/25 00:59:21;;;;;;;17.92;13.90;;;6.00;62.80;;;;;;5098150;28;20676;-56
2022/03/25 01:01:49;;;;;;;20.48;12.65;;;6.00;63.30;;;;;;5099887;28;20232;-57
2022/03/25 01:04:16;;;;;;;20.23;14.13;;;6.00;63.80;;;;;;5100975;28;20193;-57
2022/03/25 01:06:43;;;;;;;21.50;14.27;;;5.90;64.20;;;;;;5107085;28;20200;-56
2022/03/25 01:09:11;;;;;;;19.38;13.50;;;5.90;64.80;;;;;;5107405;28;20208;-57
2022/03/25 01:11:39;;;;;;;19.60;12.88;;;5.90;65.40;;;;;;5105617;28;20221;-56
2022/03/25 01:14:08;;;;;;;18.15;12.70;;;5.90;66.20;;;;;;5108904;28;20212;-56
2022/03/25 01:16:35;;;;;;;17.75;13.65;;;5.80;67.10;;;;;;5106295;28;20214;-57
2022/03/25 01:19:03;;;;;;;21.73;13.68;;;5.80;67.80;;;;;;5106323;28;20208;-56
2022/03/25 01:21:30;;;;;;;21.00;14.07;;;5.80;68.70;;;;;;5108848;28;20227;-55
2022/03/25 01:23:57;;;;;;;18.80;12.57;;;5.70;69.50;;;;;;5109654;28;20216;-56
2022/03/25 01:26:26;;;;;;;22.95;13.90;;;5.70;70.60;;;;;;5108603;28;20208;-57
2022/03/25 01:28:53;;;;;;;25.23;14.82;;;5.60;71.80;;;;;;5108577;28;20204;-56
2022/03/25 01:31:21;;;;;;;25.58;14.02;;;5.60;73.20;;;;;;5106503;28;20216;-55
2022/03/25 01:33:48;;;;;;;23.70;13.25;;;5.50;74.60;;;;;;5108794;28;20205;-55
2022/03/25 01:36:15;;;;;;;21.95;14.25;;;5.50;76.30;;;;;;5101808;28;20679;-56
2022/03/25 01:38:44;;;;;;;23.25;14.93;;;5.50;77.90;;;;;;5096472;28;20266;-56
2022/03/25 01:41:11;;;;;;;19.13;13.38;;;5.40;78.80;;;;;;5096423;28;20223;-57
2022/03/25 01:43:39;;;;;;;22.52;14.25;;;5.40;80.00;;;;;;5096269;28;20228;-58
2022/03/25 01:46:07;;;;;;;23.73;14.15;;;5.40;81.00;;;;;;5096789;28;20196;-57
2022/03/25 01:48:34;;;;;;;23.20;14.32;;;5.40;82.00;;;;;;5095885;28;20676;-56
2022/03/25 01:51:03;;;;;;;26.60;15.95;;;5.40;82.60;;;;;;5096000;28;20217;-57
2022/03/25 01:53:31;;;;;;;21.13;14.32;;;5.30;83.00;;;;;;5095944;28;20298;-55
2022/03/25 01:56:00;;;;;;;18.83;14.50;;;5.30;83.70;;;;;;5095517;28;20220;-56
2022/03/25 01:58:29;;;;;;;22.38;14.88;;;5.30;84.40;;;;;;5095696;28;20204;-57
2022/03/25 02:00:58;;;;;;;20.67;15.13;;;5.20;85.00;;;;;;5095853;28;20224;-56
2022/03/25 02:03:26;;;;;;;21.30;14.55;;;5.20;85.50;;;;;;5095839;28;20213;-57
2022/03/25 02:05:53;;;;;;;20.90;14.23;;;5.20;85.80;;;;;;5095478;28;20201;-56
2022/03/25 02:08:20;;;;;;;24.48;15.02;;;5.20;86.10;;;;;;5095285;28;20212;-56
2022/03/25 02:10:47;;;;;;;22.77;14.30;;;5.10;86.30;;;;;;5095748;28;20224;-55
2022/03/25 02:13:15;;;;;;;21.00;14.00;;;5.10;86.70;;;;;;5095660;28;20204;-57
2022/03/25 02:15:46;;;;;;;28.02;15.98;;;5.10;87.10;;;;;;5095454;28;20225;-55
2022/03/25 02:18:18;;;;;;;23.13;14.05;;;5.10;87.20;;;;;;5095674;28;20199;-55
2022/03/25 02:20:47;;;;;;;20.25;14.30;;;5.00;87.30;;;;;;5095510;28;20225;-55
2022/03/25 02:23:16;;;;;;;28.45;15.25;;;5.00;88.20;;;;;;5095145;28;20668;-56
2022/03/25 02:25:44;;;;;;;21.10;14.60;;;5.00;87.50;;;;;;5095150;28;20761;-56
2022/03/25 02:28:11;;;;;;;20.10;14.52;;;5.00;87.50;;;;;;5095156;28;20219;-56
2022/03/25 02:30:39;;;;;;;23.13;14.40;;;4.90;87.40;;;;;;5094938;28;20232;-56
2022/03/25 02:33:08;;;;;;;19.33;14.85;;;4.90;87.40;;;;;;5094769;28;20207;-56
2022/03/25 02:35:40;;;;;;;25.95;15.93;;;4.90;87.50;;;;;;5094827;28;20224;-55
2022/03/25 02:38:08;;;;;;;21.25;15.07;;;4.90;87.70;;;;;;5094940;28;20205;-56
2022/03/25 02:40:37;;;;;;;21.55;14.95;;;4.80;87.80;;;;;;5094584;28;20708;-55
2022/03/25 02:43:04;;;;;;;19.83;14.43;;;4.80;88.00;;;;;;5094908;28;20200;-57
2022/03/25 02:45:32;;;;;;;21.35;15.10;;;4.80;88.10;;;;;;5095172;28;20250;-57
2022/03/25 02:48:02;;;;;;;25.40;16.15;;;4.80;88.20;;;;;;5094270;28;20703;-56
2022/03/25 02:50:30;;;;;;;25.35;15.48;;;4.80;88.30;;;;;;5095403;28;20228;-56
2022/03/25 02:52:58;;;;;;;24.08;15.23;;;4.80;88.30;;;;;;5095060;28;20234;-57
2022/03/25 02:55:26;;;;;;;23.02;15.40;;;4.80;88.20;;;;;;5094902;28;20225;-57
2022/03/25 02:57:55;;;;;;;21.27;13.38;;;4.80;88.30;;;;;;5094746;28;20664;-58
2022/03/25 03:00:22;;;;;;;21.13;15.10;;;4.80;88.50;;;;;;5095088;28;20224;-55
2022/03/25 03:02:50;;;;;;;22.15;14.95;;;4.70;88.50;;;;;;5094936;28;20207;-56
2022/03/25 03:05:17;;;;;;;20.40;14.50;;;4.70;88.60;;;;;;5094337;28;20691;-57
2022/03/25 03:07:46;;;;;;;22.63;15.02;;;4.70;88.60;;;;;;5094047;28;20687;-56
2022/03/25 03:10:13;;;;;;;24.25;15.68;;;4.70;88.60;;;;;;5094530;28;20256;-56
2022/03/25 03:12:41;;;;;;;19.95;13.85;;;4.70;88.70;;;;;;5094299;28;20222;-57
2022/03/25 03:15:12;;;;;;;21.80;14.10;;;4.60;88.60;;;;;;5094483;28;20252;-56
2022/03/25 03:17:40;;;;;;;20.90;15.30;;;4.60;88.70;;;;;;5094468;28;20195;-56
2022/03/25 03:20:08;;;;;;;22.13;14.90;;;4.60;88.80;;;;;;5094173;28;20704;-56
2022/03/25 03:22:35;;;;;;;18.40;13.60;;;4.60;88.80;;;;;;5094292;28;20278;-56
2022/03/25 03:25:03;;;;;;;22.23;16.00;;;4.60;89.00;;;;;;5093955;28;20206;-56
2022/03/25 03:27:30;;;;;;;18.20;14.77;;;4.60;88.90;;;;;;5094221;28;20200;-55
2022/03/25 03:29:58;;;;;;;26.60;15.07;;;4.60;88.80;;;;;;5093839;28;20205;-56
2022/03/25 03:32:27;;;;;;;21.25;15.23;;;4.50;88.80;;;;;;5093957;28;20218;-57
2022/03/25 03:34:55;;;;;;;21.20;13.75;;;4.50;89.00;;;;;;5093835;28;20220;-55
2022/03/25 03:37:22;;;;;;;22.42;14.77;;;4.50;89.10;;;;;;5098449;28;20206;-57
2022/03/25 03:39:50;;;;;;;17.90;14.57;;;4.50;89.30;;;;;;5099151;28;20211;-57
2022/03/25 03:42:17;;;;;;;19.92;13.88;;;4.50;89.40;;;;;;5099456;28;20204;-57
2022/03/25 03:44:44;;;;;;;23.75;14.07;;;4.50;89.70;;;;;;5097461;28;20210;-57
2022/03/25 03:47:12;;;;;;;21.90;13.57;;;4.50;90.00;;;;;;5096240;28;20227;-56
2022/03/25 03:49:41;;;;;;;22.30;14.73;;;4.50;90.10;;;;;;5093999;28;20204;-55
2022/03/25 03:52:09;;;;;;;20.73;14.65;;;4.50;90.40;;;;;;5093700;28;20204;-55
2022/03/25 03:54:38;;;;;;;22.60;14.10;;;4.50;90.60;;;;;;5093698;28;20235;-56
2022/03/25 03:57:08;;;;;;;21.98;14.55;;;4.50;90.90;;;;;;5093901;28;20684;-56
2022/03/25 03:59:35;;;;;;;23.65;15.27;;;4.50;91.40;;;;;;5093900;28;20214;-56
2022/03/25 04:02:03;;;;;;;22.60;14.88;;;4.40;91.90;;;;;;5093731;28;20246;-56
2022/03/25 04:04:30;;;;;;;21.80;13.98;;;4.50;92.10;;;;;;5094099;28;20196;-57
2022/03/25 04:09:30;;;;;;;22.27;15.25;;;4.40;93.00;;;;;;5091694;27;20545;-56
2022/03/25 04:11:57;;;;;;;26.20;15.52;;;4.50;93.30;;;;;;5094792;28;20436;-56
2022/03/25 04:14:24;;;;;;;20.08;14.20;;;4.50;93.50;;;;;;5098306;28;20211;-55
2022/03/25 04:16:51;;;;;;;21.85;15.50;;;4.50;93.70;;;;;;5097723;28;20693;-55
2022/03/25 04:19:19;;;;;;;22.95;14.23;;;4.50;94.10;;;;;;5098250;28;20207;-55
2022/03/25 04:21:46;;;;;;;24.70;15.27;;;4.40;94.60;;;;;;5096193;28;20231;-56
2022/03/25 04:24:13;;;;;;;25.13;16.25;;;4.50;94.90;;;;;;5094414;28;20282;-56
2022/03/25 04:26:41;;;;;;;27.13;14.63;;;4.50;95.10;;;;;;5092842;28;20212;-57
2022/03/25 04:29:08;;;;;;;21.00;13.65;;;4.50;95.00;;;;;;5093123;28;20220;-55
2022/03/25 04:31:35;;;;;;;26.25;15.95;;;4.50;95.10;;;;;;5092667;28;20220;-56
2022/03/25 04:34:03;;;;;;;21.05;15.10;;;4.50;95.40;;;;;;5092656;28;20208;-56
2022/03/25 04:36:30;;;;;;;21.00;14.18;;;4.40;95.50;;;;;;5091545;28;20201;-55
2022/03/25 04:38:58;;;;;;;25.52;16.23;;;4.40;95.60;;;;;;5092121;28;20257;-56
2022/03/25 04:41:25;;;;;;;21.17;14.70;;;4.40;95.70;;;;;;5090273;28;20263;-57
2022/03/25 04:43:53;;;;;;;21.38;15.10;;;4.40;95.80;;;;;;5091482;28;20214;-56
2022/03/25 04:46:21;;;;;;;24.30;15.63;;;4.40;96.20;;;;;;5096646;28;20216;-57
2022/03/25 04:48:48;;;;;;;28.08;14.63;;;4.40;96.20;;;;;;5097032;28;20223;-56
2022/03/25 04:51:15;;;;;;;20.63;15.07;;;4.40;96.40;;;;;;5102182;28;20221;-57
2022/03/25 04:53:42;;;;;;;24.42;15.00;;;4.30;96.60;;;;;;5104491;28;20216;-57
2022/03/25 04:56:09;;;;;;;27.00;17.70;;;4.30;96.70;;;;;;5109262;28;20224;-56
2022/03/25 04:58:37;;;;;;;24.30;16.38;;;4.30;96.90;;;;;;5103391;28;20208;-56
2022/03/25 05:01:05;;;;;;;24.20;16.52;;;4.20;97.30;;;;;;5099389;28;20589;-57
2022/03/25 05:03:33;;;;;;;29.35;15.65;;;4.20;97.40;;;;;;5101592;28;20220;-56
2022/03/25 05:06:00;;;;;;;31.60;16.17;;;4.20;97.60;;;;;;5103030;28;20306;-57
2022/03/25 05:08:27;;;;;;;27.52;17.40;;;4.20;98.00;;;;;;5103415;28;20224;-56
2022/03/25 05:10:54;;;;;;;25.38;16.77;;;4.10;97.90;;;;;;5103009;28;20219;-56
2022/03/25 05:13:21;;;;;;;25.60;16.48;;;4.10;98.00;;;;;;5107124;28;20200;-57
2022/03/25 05:15:48;;;;;;;27.85;16.58;;;4.10;98.10;;;;;;5104870;28;20199;-56
2022/03/25 05:18:17;;;;;;;22.10;14.88;;;4.10;98.30;;;;;;5106185;28;20554;-55
2022/03/25 05:20:44;;;;;;;27.75;16.20;;;4.00;98.50;;;;;;5093181;28;20277;-57
2022/03/25 05:23:12;;;;;;;26.98;16.75;;;4.00;98.80;;;;;;5092197;28;20279;-57
2022/03/25 05:25:39;;;;;;;22.48;15.40;;;4.00;98.80;;;;;;5091544;28;20294;-57
2022/03/25 05:28:06;;;;;;;27.48;16.15;;;4.00;99.10;;;;;;5086106;28;20227;-57
2022/03/25 05:30:35;;;;;;;28.17;16.10;;;4.00;99.20;;;;;;5082565;28;20225;-56
2022/03/25 05:33:03;;;;;;;26.83;15.73;;;4.00;99.40;;;;;;5082796;28;20244;-56
2022/03/25 05:35:32;;;;;;;25.40;16.40;;;4.10;99.60;;;;;;5085960;28;20207;-55
2022/03/25 05:37:59;;;;;;;25.92;16.35;;;4.10;99.50;;;;;;5089533;28;20207;-56
2022/03/25 05:40:27;;;;;;;22.55;15.68;;;4.10;99.60;;;;;;5089994;28;20224;-56
2022/03/25 05:42:55;;;;;;;26.20;16.60;;;4.20;99.70;;;;;;5091185;28;20207;-57
2022/03/25 05:45:24;;;;;;;22.85;14.82;;;4.30;99.60;;;;;;5090328;28;20208;-57
2022/03/25 05:47:52;;;;;;;24.88;15.57;;;4.40;99.50;;;;;;5087414;28;20228;-56
2022/03/25 05:50:20;;;;;;;24.13;15.98;;;4.40;99.30;;;;;;5086034;28;20231;-57
2022/03/25 05:52:48;;;;;;;24.45;16.23;;;4.50;99.10;;;;;;5091498;28;20196;-57
2022/03/25 05:55:16;;;;;;;22.13;17.15;;;4.50;99.10;;;;;;5092877;28;20206;-56
2022/03/25 05:57:44;;;;;;;23.92;15.63;;;4.60;99.00;;;;;;5086689;28;20228;-56
2022/03/25 06:00:13;;;;;;;27.10;15.93;;;4.70;98.90;;;;;;5082440;28;20221;-56
2022/03/25 06:02:42;;;;;;;29.83;17.00;;;4.70;98.80;;;;;;5078462;28;20607;-56
2022/03/25 06:05:09;;;;;;;22.25;15.30;;;4.70;98.70;;;;;;5077412;28;20228;-57
2022/03/25 06:07:37;;;;;;;22.55;15.10;;;4.80;98.60;;;;;;5076783;28;20220;-56
2022/03/25 06:10:07;;;;;;;24.38;16.70;;;4.90;98.50;;;;;;5076684;28;20232;-56
2022/03/25 06:12:35;;;;;;;26.52;15.90;;;4.90;98.40;;;;;;5076651;28;20235;-56
2022/03/25 06:15:02;;;;;;;22.80;15.70;;;5.00;98.40;;;;;;5076068;28;20595;-56
2022/03/25 06:17:29;;;;;;;30.58;16.27;;;5.10;98.30;;;;;;5076208;28;20201;-57
2022/03/25 06:19:57;;;;;;;36.85;18.42;;;5.10;98.20;;;;;;5075923;28;20204;-56
2022/03/25 06:22:24;;;;;;;33.30;16.52;;;5.30;98.10;;;;;;5077235;28;20270;-56
2022/03/25 06:24:52;;;;;;;29.23;17.00;;;5.40;97.90;;;;;;5077274;28;20201;-57
2022/03/25 06:27:22;;;;;;;30.27;17.33;;;5.50;97.80;;;;;;5075453;28;20197;-56
2022/03/25 06:29:50;;;;;;;26.23;16.88;;;5.50;97.50;;;;;;5075234;28;20205;-56
2022/03/25 06:32:17;;;;;;;21.88;15.50;;;5.60;97.20;;;;;;5074655;28;20574;-55
2022/03/25 06:34:44;;;;;;;27.75;16.00;;;5.70;96.90;;;;;;5075416;28;20212;-55
2022/03/25 06:37:11;;;;;;;28.98;15.70;;;5.80;96.70;;;;;;5075995;28;20205;-55
2022/03/25 06:39:38;;;;;;;25.52;16.73;;;5.90;96.50;;;;;;5076878;28;20592;-56
2022/03/25 06:42:06;;;;;;;22.60;14.70;;;6.00;96.20;;;;;;5075726;28;20197;-55
2022/03/25 06:44:34;;;;;;;23.83;15.77;;;6.10;95.90;;;;;;5076629;28;20208;-55
2022/03/25 06:47:01;;;;;;;29.52;16.10;;;6.20;95.60;;;;;;5076735;28;20201;-56
2022/03/25 06:49:29;;;;;;;25.05;16.17;;;6.40;95.30;;;;;;5075555;28;20248;-56
2022/03/25 06:51:57;;;;;;;23.52;15.23;;;6.50;94.90;;;;;;5075163;28;20225;-55
2022/03/25 06:54:24;;;;;;;28.35;16.80;;;6.70;94.50;;;;;;5075348;28;20206;-55
2022/03/25 06:56:52;;;;;;;29.92;18.38;;;6.80;94.40;;;;;;5075338;28;20205;-54
2022/03/25 06:59:21;;;;;;;23.92;16.25;;;6.90;93.80;;;;;;5074859;28;20207;-56
2022/03/25 07:01:50;;;;;;;23.02;15.52;;;7.00;93.30;;;;;;5074876;28;20308;-55
2022/03/25 07:04:17;;;;;;;24.70;16.25;;;7.10;93.00;;;;;;5074747;28;20210;-55
2022/03/25 07:06:50;;;;;;;29.40;17.73;;;7.20;92.70;;;;;;5074943;28;20574;-55
2022/03/25 07:09:17;;;;;;;25.15;18.00;;;7.40;92.30;;;;;;5074630;28;20226;-54
2022/03/25 07:11:45;;;;;;;20.30;15.30;;;7.50;91.80;;;;;;5074876;28;20225;-56
2022/03/25 07:14:12;;;;;;;31.70;17.25;;;7.60;91.40;;;;;;5074212;28;20799;-57
2022/03/25 07:16:42;;;;;;;26.85;17.45;;;7.70;91.00;;;;;;5074905;28;20205;-57
2022/03/25 07:19:10;;;;;;;30.02;18.27;;;7.90;90.70;;;;;;5074785;28;20718;-57
2022/03/25 07:21:38;;;;;;;26.65;17.50;;;8.00;90.20;;;;;;5072829;28;20226;-55
2022/03/25 07:24:06;;;;;;;26.38;17.17;;;8.20;89.70;;;;;;5072326;28;20252;-57
2022/03/25 07:26:33;;;;;;;25.45;18.63;;;8.30;88.70;;;;;;5074010;28;20577;-55
2022/03/25 07:29:00;;;;;;;29.13;17.90;;;8.50;87.60;;;;;;5075297;28;20245;-56
2022/03/25 07:31:28;;;;;;;26.60;17.35;;;8.60;86.20;;;;;;5078066;28;20233;-57
2022/03/25 07:33:55;;;;;;;29.67;18.58;;;8.70;84.20;;;;;;5074186;28;20225;-56
2022/03/25 07:36:24;;;;;;;27.75;17.35;;;8.80;82.40;;;;;;5075859;28;20208;-58
2022/03/25 07:38:51;;;;;;;30.25;18.08;;;8.90;81.00;;;;;;5072241;28;20203;-58
2022/03/25 07:41:19;;;;;;;33.23;18.53;;;9.10;78.80;;;;;;5075113;28;20226;-57
2022/03/25 07:43:46;;;;;;;23.70;16.73;;;9.20;77.10;;;;;;5074471;28;20453;-57
2022/03/25 07:46:14;;;;;;;26.20;17.07;;;9.40;75.50;;;;;;5076419;28;20777;-55
2022/03/25 07:48:41;;;;;;;27.07;16.73;;;9.50;73.60;;;;;;5076459;28;20477;-57
2022/03/25 07:51:09;;;;;;;22.53;15.50;;;9.70;72.00;;;;;;5076309;28;20833;-57
2022/03/25 07:53:37;;;;;;;27.37;18.00;;;9.90;70.50;;;;;;5075289;28;20450;-56
2022/03/25 07:56:05;;;;;;;23.53;17.23;;;10.00;67.70;;;;;;5074626;28;20452;-57
2022/03/25 07:58:32;;;;;;;27.03;16.80;;;10.10;66.50;;;;;;5073189;28;20818;-57
2022/03/25 08:00:59;;;;;;;22.90;16.60;;;10.20;65.40;;;;;;5073548;28;20475;-56
2022/03/25 08:03:26;;;;;;;24.37;17.37;;;10.30;64.50;;;;;;5074110;28;20453;-58
2022/03/25 08:05:54;;;;;;;24.77;16.70;;;10.40;63.60;;;;;;5072824;28;20813;-57
2022/03/25 08:08:22;;;;;;;26.47;17.53;;;10.50;62.50;;;;;;5072748;28;20468;-56
2022/03/25 08:10:55;;;;;;;26.63;18.00;;;10.70;61.70;;;;;;5073475;28;20530;-56
2022/03/25 08:13:23;;;;;;;28.13;18.23;;;10.80;60.60;;;;;;5073741;28;20521;-57
2022/03/25 08:15:50;;;;;;;34.70;19.10;;;10.90;59.90;;;;;;5072774;28;20447;-57
2022/03/25 08:18:18;;;;;;;27.67;18.00;;;11.10;59.10;;;;;;5073338;28;20447;-57
2022/03/25 08:20:46;;;;;;;29.93;18.03;;;11.30;58.20;;;;;;5073092;28;20471;-55
2022/03/25 08:27:48;;;;;;;24.23;17.93;;;11.40;57.00;;;;;;5072341;28;20950;-57
2022/03/25 08:28:48;;;;;;;25.73;17.33;;;11.80;55.60;;;;;;5072720;28;20477;-57
2022/03/25 08:31:15;;;;;;;21.73;17.17;;;12.00;54.70;;;;;;5071911;28;20478;-57
2022/03/25 08:33:42;;;;;;;25.10;17.20;;;12.10;54.00;;;;;;5072637;28;20532;-56
2022/03/25 08:36:10;;;;;;;26.60;16.60;;;12.30;53.30;;;;;;5072728;28;20997;-56
2022/03/25 08:38:37;;;;;;;23.00;18.67;;;12.40;52.50;;;;;;5072413;28;20449;-56
2022/03/25 08:41:05;;;;;;;31.30;18.47;;;12.50;51.70;;;;;;5073190;28;20510;-57
2022/03/25 08:43:32;;;;;;;22.07;15.80;;;12.60;50.90;;;;;;5072871;28;20865;-56
2022/03/25 08:46:00;;;;;;;26.43;16.77;;;12.70;49.70;;;;;;5073559;28;20453;-57
2022/03/25 08:48:27;;;;;;;26.90;16.50;;;12.80;48.10;;;;;;5072721;28;20538;-57
2022/03/25 08:50:54;;;;;;;25.43;16.57;;;12.90;46.80;;;;;;5073236;28;20464;-57
2022/03/25 08:53:22;;;;;;;27.00;16.50;;;12.90;45.40;;;;;;5073528;28;20857;-56
2022/03/25 08:55:49;;;;;;;27.60;16.67;;;13.10;44.30;;;;;;5074903;28;20449;-55
2022/03/25 08:58:17;;;;;;;26.33;18.27;;;13.20;43.30;;;;;;5077328;28;20823;-57
2022/03/25 09:00:45;;;;;;;27.03;18.43;;;13.20;42.40;;;;;;5076939;28;20560;-58
2022/03/25 09:03:12;;;;;;;26.73;17.17;;;13.30;41.70;;;;;;5076696;28;20958;-57
2022/03/25 09:05:40;;;;;;;21.93;16.70;;;13.30;41.20;;;;;;5077215;28;20444;-56
2022/03/25 09:08:07;;;;;;;25.77;17.63;;;13.40;40.90;;;;;;5076975;28;20527;-57
2022/03/25 09:10:35;;;;;;;20.70;16.53;;;13.50;40.30;;;;;;5076776;28;20546;-55
2022/03/25 09:13:02;;;;;;;33.30;18.47;;;13.60;39.60;;;;;;5076025;28;20460;-55
2022/03/25 09:15:31;;;;;;;25.00;17.53;;;13.60;39.40;;;;;;5076317;28;20448;-57
2022/03/25 09:17:59;;;;;;;21.10;15.33;;;13.70;39.20;;;;;;5076794;28;20452;-57
2022/03/25 09:20:26;;;;;;;29.20;18.40;;;13.90;39.40;;;;;;5076817;28;20475;-57
2022/03/25 09:22:54;;;;;;;23.30;16.10;;;14.10;38.30;;;;;;5076217;28;20456;-57
2022/03/25 09:25:23;;;;;;;20.30;16.03;;;14.10;37.60;;;;;;5077022;28;20445;-56
2022/03/25 09:27:51;;;;;;;22.03;15.43;;;14.20;37.10;;;;;;5076426;28;20503;-55
2022/03/25 09:30:18;;;;;;;20.83;15.70;;;14.30;36.20;;;;;;5077013;28;20490;-56
2022/03/25 09:32:46;;;;;;;24.50;14.50;;;14.40;35.60;;;;;;5077317;28;20941;-57
2022/03/25 09:35:14;;;;;;;23.13;14.77;;;14.60;35.10;;;;;;5075725;28;20988;-57
2022/03/25 09:37:43;;;;;;;21.35;14.90;;;14.70;34.50;;;;;;5075329;28;20441;-55
2022/03/25 09:40:13;;;;;;;21.53;14.63;;;14.90;32.90;;;;;;5076418;28;20231;-54
2022/03/25 09:42:41;;;;;;;22.40;16.10;;;15.00;32.70;;;;;;5076636;28;20845;-55
2022/03/25 09:45:10;;;;;;;19.63;13.67;;;15.20;32.80;;;;;;5075525;28;20950;-55
2022/03/25 09:47:38;;;;;;;20.30;14.80;;;15.30;32.70;;;;;;5076148;28;20983;-56
2022/03/25 09:50:10;;;;;;;19.60;14.13;;;15.40;32.50;;;;;;5075554;28;20839;-55
2022/03/25 09:52:37;;;;;;;19.48;13.98;;;15.50;32.50;;;;;;5075018;28;20465;-56
2022/03/25 09:55:05;;;;;;;22.07;14.53;;;15.50;31.50;;;;;;5076518;28;20625;-55
2022/03/25 09:57:33;;;;;;;25.90;15.87;;;15.50;31.30;;;;;;5075181;28;20450;-55
2022/03/25 10:00:00;;;;;;;22.73;15.40;;;15.50;31.70;;;;;;5074882;28;20466;-55
2022/03/25 10:02:27;;;;;;;20.83;15.20;;;15.50;32.00;;;;;;5075627;28;20453;-56
2022/03/25 10:04:55;;;;;;;20.10;15.53;;;15.50;32.30;;;;;;5074839;28;20470;-56
2022/03/25 10:07:26;;;;;;;22.63;15.73;;;15.60;32.70;;;;;;5075222;28;21030;-55
2022/03/25 10:10:08;;;;;;;24.73;16.07;;;15.60;32.80;;;;;;5075152;28;20567;-55
2022/03/25 10:12:36;;;;;;;23.97;18.43;;;15.60;33.00;;;;;;5075272;28;20443;-56
2022/03/25 10:15:20;;;;;;;27.57;19.73;;;15.70;33.30;;;;;;5076247;28;20447;-57
2022/03/25 10:17:53;;;;;;;25.07;17.80;;;15.70;34.40;;;;;;5074077;28;20455;-56
2022/03/25 10:20:21;;;;;;;24.77;17.90;;;15.70;35.00;;;;;;5075326;28;20462;-55
2022/03/25 10:25:20;;;;;;;31.10;19.37;;;16.00;35.30;;;;;;5054715;22;20536;-53
2022/03/25 10:27:51;;;;;;;29.20;21.23;;;16.10;35.30;;;;;;5033660;28;20535;-54
2022/03/25 10:30:35;;;;;;;30.70;22.63;;;16.20;35.30;;;;;;5034346;28;20476;-55
2022/03/25 10:33:09;;;;;;;31.70;23.90;;;16.20;35.90;;;;;;5034501;28;20837;-55
2022/03/25 10:35:58;;;;;;;30.70;22.70;;;16.10;36.80;;;;;;5033442;28;20444;-56
2022/03/25 10:38:26;;;;;;;33.10;21.77;;;16.00;37.20;;;;;;5034461;28;20460;-52
2022/03/25 10:40:57;;;;;;;31.80;22.83;;;16.20;37.20;;;;;;5034481;28;20440;-54
2022/03/25 10:43:25;;;;;;;28.70;21.80;;;16.30;37.00;;;;;;5028342;28;20466;-53
2022/03/25 10:45:53;;;;;;;29.80;21.73;;;16.30;36.80;;;;;;5014103;28;20442;-54
2022/03/25 10:48:21;;;;;;;35.30;21.27;;;16.30;36.90;;;;;;5014416;28;20465;-54
2022/03/25 10:51:03;;;;;;;28.77;20.13;;;16.30;36.80;;;;;;5013215;28;20490;-54
2022/03/25 10:53:31;;;;;;;28.10;22.30;;;16.30;36.70;;;;;;5014121;28;20473;-55
2022/03/25 10:56:02;;;;;;;30.60;23.17;;;16.30;36.60;;;;;;5014021;28;20462;-54
2022/03/25 10:58:29;;;;;;;33.37;22.80;;;16.30;36.70;;;;;;5013405;28;20529;-54
2022/03/25 11:00:57;;;;;;;31.13;23.13;;;16.50;36.90;;;;;;5014362;28;20453;-54
2022/03/25 11:03:25;;;;;;;28.87;21.70;;;16.60;36.80;;;;;;5016469;28;20466;-54
2022/03/25 11:05:53;;;;;;;30.20;22.07;;;16.70;36.50;;;;;;5014617;28;20454;-55
2022/03/25 11:08:21;;;;;;;32.43;22.47;;;16.70;36.30;;;;;;5013188;28;20450;-55
2022/03/25 11:10:48;;;;;;;31.03;23.40;;;16.70;36.50;;;;;;5013521;28;20928;-55
2022/03/25 11:13:18;;;;;;;31.73;24.27;;;16.70;36.90;;;;;;5014322;28;20467;-55
2022/03/25 11:15:47;;;;;;;33.27;24.27;;;16.90;37.00;;;;;;5014235;28;20830;-54
2022/03/25 11:18:17;;;;;;;29.63;23.83;;;17.20;37.10;;;;;;5012400;28;20492;-55
2022/03/25 11:20:45;;;;;;;33.20;22.87;;;17.20;37.00;;;;;;5013635;28;20452;-54
2022/03/25 11:23:18;;;;;;;34.77;24.93;;;17.30;36.90;;;;;;5014573;28;20450;-54
2022/03/25 11:25:49;;;;;;;27.33;22.67;;;17.20;36.90;;;;;;5012915;28;20472;-54
2022/03/25 11:28:20;;;;;;;29.00;22.40;;;17.10;37.00;;;;;;5013202;28;20442;-54
2022/03/25 11:30:58;;;;;;;32.73;25.20;;;17.10;37.10;;;;;;5013955;28;20854;-54
2022/03/25 11:33:25;;;;;;;30.77;24.40;;;17.10;37.20;;;;;;5012764;28;20443;-53
2022/03/25 11:36:14;;;;;;;31.90;24.13;;;17.10;37.40;;;;;;5012687;28;20220;-53
2022/03/25 11:38:41;;;;;;;29.17;23.90;;;17.20;37.50;;;;;;5013594;28;20779;-55
2022/03/25 11:41:22;;;;;;;29.30;22.90;;;17.30;37.50;;;;;;5013851;28;20808;-54
2022/03/25 11:44:23;;;;;;;30.90;22.33;;;17.20;37.40;;;;;;5012716;28;20570;-53
2022/03/25 11:47:15;;;;;;;33.00;25.10;;;17.20;37.40;;;;;;5013439;28;20777;-52
2022/03/25 11:49:43;;;;;;;29.80;23.47;;;17.20;37.60;;;;;;5013169;28;20455;-56
2022/03/25 11:52:30;;;;;;;36.23;23.20;;;17.30;37.20;;;;;;5012299;28;20481;-54
2022/03/25 11:55:00;;;;;;;30.10;22.40;;;17.30;36.90;;;;;;5013384;28;20470;-53
2022/03/25 11:57:29;;;;;;;31.80;21.80;;;17.20;36.70;;;;;;5013212;28;20443;-53
2022/03/25 11:59:59;;;;;;;27.60;22.33;;;17.10;36.60;;;;;;5013139;28;20454;-53
2022/03/25 12:02:30;;;;;;;28.60;24.00;;;17.00;36.60;;;;;;5014070;28;20454;-53
2022/03/25 12:04:58;;;;;;;28.80;21.50;;;16.90;36.80;;;;;;5013419;28;20593;-54
2022/03/25 12:07:26;;;;;;;28.20;21.40;;;17.00;36.90;;;;;;5012415;28;21062;-53
2022/03/25 12:09:53;;;;;;;27.90;20.57;;;17.10;36.80;;;;;;5013368;28;20481;-53
2022/03/25 12:12:21;;;;;;;27.87;21.80;;;17.20;36.70;;;;;;5013206;28;20454;-54
2022/03/25 12:15:11;;;;;;;26.47;21.73;;;17.30;36.50;;;;;;5011799;28;20533;-53
2022/03/25 12:17:38;;;;;;;30.73;22.60;;;17.30;36.20;;;;;;5013185;28;20427;-56
2022/03/25 12:20:06;;;;;;;29.03;21.27;;;17.20;36.40;;;;;;5013004;28;20904;-55
2022/03/25 12:22:41;;;;;;;29.20;20.60;;;17.20;36.30;;;;;;5012586;28;20451;-54
2022/03/25 12:25:17;;;;;;;25.33;20.10;;;17.30;36.30;;;;;;5012422;28;20839;-52
2022/03/25 12:27:45;;;;;;;26.20;20.17;;;17.50;36.20;;;;;;5013468;28;20445;-53
2022/03/25 12:30:15;;;;;;;30.63;21.20;;;17.70;36.00;;;;;;5015204;28;20497;-55
2022/03/25 12:32:43;;;;;;;30.43;23.50;;;17.70;35.60;;;;;;5015439;28;20451;-55
2022/03/25 12:35:13;;;;;;;31.43;22.50;;;17.80;35.60;;;;;;5017293;28;20459;-53
2022/03/25 12:38:14;;;;;;;27.87;21.50;;;17.90;35.50;;;;;;5017487;28;20451;-52
2022/03/25 12:40:41;;;;;;;26.63;22.40;;;17.90;35.20;;;;;;5017414;28;20429;-56
2022/03/25 12:43:11;;;;;;;29.47;21.53;;;17.90;35.20;;;;;;5016026;28;20951;-53
2022/03/25 12:45:41;;;;;;;29.13;21.93;;;17.90;35.20;;;;;;5016891;28;20447;-54
2022/03/25 12:48:10;;;;;;;28.03;21.50;;;17.90;35.30;;;;;;5016989;28;20918;-53